createdAt,value
2018-12-03T00:01:48.551Z,94788.42
2018-12-03T00:02:54.609Z,94791.25
2018-12-03T00:04:02.533Z,94784.81
2018-12-03T00:05:06.561Z,94781.20
2018-12-03T00:06:10.098Z,94786.88
2018-12-03T00:07:13.732Z,94781.12
2018-12-03T00:08:17.372Z,94794.24
2018-12-03T00:09:21.394Z,94795.53
2018-12-03T00:10:24.992Z,94799.14
2018-12-03T00:11:28.452Z,94795.64
2018-12-03T00:12:31.956Z,94798.17
2018-12-03T00:13:35.472Z,94794.74
2018-12-03T00:14:39.112Z,94798.24
2018-12-03T00:15:42.773Z,94795.34
2018-12-03T00:16:46.432Z,94801.84
2018-12-03T00:17:49.966Z,94800.34
2018-12-03T00:18:53.504Z,94795.41
2018-12-03T00:19:57.105Z,94798.86
2018-12-03T00:21:00.720Z,94799.19
2018-12-03T00:22:04.540Z,94797.73
2018-12-03T00:23:08.078Z,94790.63
2018-12-03T00:24:11.672Z,94799.05
2018-12-03T00:25:15.219Z,94796.09
2018-12-03T00:26:18.765Z,94797.95
2018-12-03T00:27:22.374Z,94797.45
2018-12-03T00:28:25.957Z,94800.48
2018-12-03T00:29:29.683Z,94797.30
2018-12-03T00:30:34.247Z,94798.95
2018-12-03T00:31:37.820Z,94802.18
2018-12-03T00:32:41.648Z,94796.48
2018-12-03T00:33:45.240Z,94798.00
2018-12-03T00:34:48.770Z,94798.20
2018-12-03T00:35:53.246Z,94788.48
2018-12-03T00:36:56.777Z,94795.23
2018-12-03T00:38:00.403Z,94793.14
2018-12-03T00:39:04.198Z,94795.67
2018-12-03T00:40:07.947Z,94791.48
2018-12-03T00:41:11.527Z,94798.52
2018-12-03T00:42:15.049Z,94798.31
2018-12-03T00:43:18.531Z,94794.45
2018-12-03T00:44:22.698Z,94801.83
2018-12-03T00:45:26.219Z,94793.24
2018-12-03T00:46:29.770Z,94797.84
2018-12-03T00:47:33.244Z,94800.30
2018-12-03T00:48:36.855Z,94796.32
2018-12-03T00:49:40.405Z,94790.23
2018-12-03T00:50:43.855Z,94789.81
2018-12-03T00:51:47.363Z,94792.49
2018-12-03T00:52:50.967Z,94790.50
2018-12-03T00:53:54.474Z,94792.12
2018-12-03T00:54:58.069Z,94788.44
2018-12-03T00:56:01.690Z,94795.52
2018-12-03T00:57:05.218Z,94795.25
2018-12-03T00:58:08.799Z,94792.34
2018-12-03T00:59:12.335Z,94793.84
2018-12-03T01:00:15.879Z,94787.97
2018-12-03T01:01:19.450Z,94787.24
2018-12-03T01:02:24.919Z,94790.16
2018-12-03T01:03:28.479Z,94787.45
2018-12-03T01:04:32.086Z,94785.92
2018-12-03T01:05:35.665Z,94796.86
2018-12-03T01:06:39.224Z,94782.56
2018-12-03T01:07:42.750Z,94785.36
2018-12-03T01:08:46.364Z,94786.96
2018-12-03T01:09:49.967Z,94786.80
2018-12-03T01:10:53.560Z,94796.55
2018-12-03T01:11:57.153Z,94793.68
2018-12-03T01:13:01.126Z,94794.20
2018-12-03T01:14:04.765Z,94802.68
2018-12-03T01:15:09.585Z,94798.10
2018-12-03T01:16:13.121Z,94802.29
2018-12-03T01:17:16.685Z,94804.57
2018-12-03T01:18:20.220Z,94801.95
2018-12-03T01:19:23.756Z,94807.91
2018-12-03T01:20:27.438Z,94798.49
2018-12-03T01:21:31.064Z,94798.59
2018-12-03T01:22:34.538Z,94801.19
2018-12-03T01:23:38.031Z,94805.70
2018-12-03T01:24:41.967Z,94810.75
2018-12-03T01:25:45.454Z,94800.48
2018-12-03T01:26:49.019Z,94804.56
2018-12-03T01:27:52.611Z,94805.13
2018-12-03T01:28:56.098Z,94801.38
2018-12-03T01:29:59.789Z,94803.31
2018-12-03T01:31:03.995Z,94804.82
2018-12-03T01:32:07.676Z,94808.01
2018-12-03T01:33:11.412Z,94801.59
2018-12-03T01:34:14.935Z,94788.61
2018-12-03T01:35:18.479Z,94796.01
2018-12-03T01:36:22.024Z,94794.05
2018-12-03T01:37:25.505Z,94793.81
2018-12-03T01:38:29.001Z,94788.72
2018-12-03T01:39:32.498Z,94788.64
2018-12-03T01:40:36.048Z,94792.29
2018-12-03T01:41:39.595Z,94796.86
2018-12-03T01:42:43.318Z,94783.14
2018-12-03T01:43:46.876Z,94798.77
2018-12-03T01:44:50.454Z,94792.34
2018-12-03T01:45:53.987Z,94794.66
2018-12-03T01:46:57.568Z,94787.24
2018-12-03T01:48:01.101Z,94796.14
2018-12-03T01:49:04.984Z,94784.66
2018-12-03T01:50:11.876Z,94792.23
2018-12-03T01:51:15.858Z,94795.15
2018-12-03T01:52:20.245Z,94793.92
2018-12-03T01:53:24.442Z,94794.64
2018-12-03T01:54:28.821Z,94787.45
2018-12-03T01:55:32.400Z,94790.42
2018-12-03T01:56:36.067Z,94796.99
2018-12-03T01:57:39.731Z,94791.02
2018-12-03T01:58:43.592Z,94794.87
2018-12-03T01:59:47.203Z,94788.66
2018-12-03T02:00:50.745Z,94790.30
2018-12-03T02:01:54.451Z,94793.66
2018-12-03T02:02:58.553Z,94791.05
2018-12-03T02:04:02.350Z,94795.64
2018-12-03T02:05:06.351Z,94788.63
2018-12-03T02:06:09.873Z,94789.96
2018-12-03T02:07:14.185Z,94788.09
2018-12-03T02:08:17.739Z,94777.48
2018-12-03T02:09:21.382Z,94782.56
2018-12-03T02:10:24.939Z,94791.30
2018-12-03T02:11:28.440Z,94782.47
2018-12-03T02:12:31.907Z,94788.08
2018-12-03T02:13:35.512Z,94779.85
2018-12-03T02:14:39.125Z,94780.70
2018-12-03T02:15:42.643Z,94780.94
2018-12-03T02:16:46.183Z,94778.41
2018-12-03T02:17:49.727Z,94778.42
2018-12-03T02:18:53.274Z,94779.49
2018-12-03T02:19:56.818Z,94779.85
2018-12-03T02:21:00.355Z,94774.58
2018-12-03T02:22:04.096Z,94774.48
2018-12-03T02:23:07.684Z,94778.89
2018-12-03T02:24:11.420Z,94770.70
2018-12-03T02:25:15.572Z,94772.59
2018-12-03T02:26:19.076Z,94783.27
2018-12-03T02:27:22.538Z,94779.64
2018-12-03T02:28:26.056Z,94775.91
2018-12-03T02:29:29.679Z,94783.88
2018-12-03T02:30:33.200Z,94779.59
2018-12-03T02:31:37.016Z,94781.44
2018-12-03T02:32:41.155Z,94784.08
2018-12-03T02:33:44.680Z,94782.48
2018-12-03T02:34:48.251Z,94780.60
2018-12-03T02:35:51.736Z,94787.06
2018-12-03T02:36:55.792Z,94782.61
2018-12-03T02:38:00.120Z,94782.31
2018-12-03T02:39:04.222Z,94780.73
2018-12-03T02:40:12.875Z,94784.25
2018-12-03T02:41:16.410Z,94784.88
2018-12-03T02:42:19.900Z,94785.69
2018-12-03T02:43:23.404Z,94782.05
2018-12-03T02:44:26.980Z,94782.13
2018-12-03T02:45:30.604Z,94779.98
2018-12-03T02:46:34.514Z,94779.20
2018-12-03T02:47:38.064Z,94783.94
2018-12-03T02:48:41.841Z,94781.38
2018-12-03T02:49:45.547Z,94787.73
2018-12-03T02:50:49.045Z,94788.72
2018-12-03T02:51:52.604Z,94793.22
2018-12-03T02:52:56.130Z,94788.52
2018-12-03T02:53:59.671Z,94792.25
2018-12-03T02:55:03.247Z,94785.41
2018-12-03T02:56:07.417Z,94795.11
2018-12-03T02:57:11.004Z,94796.13
2018-12-03T02:58:14.532Z,94794.45
2018-12-03T02:59:18.070Z,94788.98
2018-12-03T03:00:21.581Z,94791.50
2018-12-03T03:01:25.204Z,94797.22
2018-12-03T03:02:28.712Z,94797.70
2018-12-03T03:03:32.320Z,94793.38
2018-12-03T03:04:35.936Z,94791.88
2018-12-03T03:05:39.493Z,94791.23
2018-12-03T03:06:42.972Z,94789.36
2018-12-03T03:07:46.582Z,94794.11
2018-12-03T03:08:50.053Z,94795.77
2018-12-03T03:09:53.644Z,94793.81
2018-12-03T03:10:57.269Z,94788.59
2018-12-03T03:12:01.003Z,94802.98
2018-12-03T03:13:04.617Z,94787.84
2018-12-03T03:14:08.236Z,94791.34
2018-12-03T03:15:13.871Z,94788.31
2018-12-03T03:16:17.413Z,94795.19
2018-12-03T03:17:20.961Z,94787.52
2018-12-03T03:18:24.523Z,94790.72
2018-12-03T03:19:28.063Z,94792.89
2018-12-03T03:20:31.668Z,94795.59
2018-12-03T03:21:35.217Z,94793.23
2018-12-03T03:22:38.777Z,94792.78
2018-12-03T03:23:42.363Z,94793.72
2018-12-03T03:24:45.876Z,94796.86
2018-12-03T03:25:49.429Z,94808.48
2018-12-03T03:26:52.934Z,94801.89
2018-12-03T03:27:56.552Z,94803.77
2018-12-03T03:29:00.079Z,94800.06
2018-12-03T03:30:03.943Z,94811.02
2018-12-03T03:31:07.437Z,94800.23
2018-12-03T03:32:11.097Z,94794.93
2018-12-03T03:33:14.597Z,94804.83
2018-12-03T03:34:18.203Z,94806.03
2018-12-03T03:35:21.766Z,94794.11
2018-12-03T03:36:25.404Z,94796.86
2018-12-03T03:37:28.957Z,94795.50
2018-12-03T03:38:32.492Z,94806.38
2018-12-03T03:39:36.916Z,94804.94
2018-12-03T03:40:40.576Z,94802.61
2018-12-03T03:41:44.076Z,94801.67
2018-12-03T03:42:48.537Z,94802.45
2018-12-03T03:43:52.063Z,94806.00
2018-12-03T03:44:55.572Z,94805.75
2018-12-03T03:45:59.619Z,94800.81
2018-12-03T03:47:03.349Z,94805.64
2018-12-03T03:48:06.851Z,94811.98
2018-12-03T03:49:11.080Z,94804.42
2018-12-03T03:50:14.695Z,94806.72
2018-12-03T03:51:18.164Z,94803.52
2018-12-03T03:52:21.618Z,94807.09
2018-12-03T03:53:25.175Z,94807.62
2018-12-03T03:54:28.655Z,94808.30
2018-12-03T03:55:32.164Z,94808.94
2018-12-03T03:56:35.808Z,94812.33
2018-12-03T03:57:39.400Z,94808.66
2018-12-03T03:58:42.914Z,94798.83
2018-12-03T03:59:46.584Z,94814.34
2018-12-03T04:00:50.087Z,94818.94
2018-12-03T04:01:53.639Z,94818.71
2018-12-03T04:02:57.191Z,94814.80
2018-12-03T04:04:00.760Z,94811.23
2018-12-03T04:05:04.456Z,94815.09
2018-12-03T04:06:08.082Z,94804.42
2018-12-03T04:07:12.387Z,94807.05
2018-12-03T04:08:15.878Z,94809.42
2018-12-03T04:09:19.363Z,94803.55
2018-12-03T04:10:23.888Z,94814.39
2018-12-03T04:11:28.168Z,94805.10
2018-12-03T04:12:31.773Z,94818.09
2018-12-03T04:13:35.457Z,94803.40
2018-12-03T04:14:38.913Z,94803.20
2018-12-03T04:15:43.055Z,94807.95
2018-12-03T04:16:46.687Z,94806.56
2018-12-03T04:17:50.179Z,94804.82
2018-12-03T04:18:53.821Z,94797.77
2018-12-03T04:19:57.335Z,94809.70
2018-12-03T04:21:00.867Z,94801.55
2018-12-03T04:22:04.460Z,94806.07
2018-12-03T04:23:08.130Z,94808.70
2018-12-03T04:24:11.636Z,94806.93
2018-12-03T04:25:15.238Z,94798.28
2018-12-03T04:26:18.774Z,94806.42
2018-12-03T04:27:22.363Z,94808.60
2018-12-03T04:28:25.916Z,94812.17
2018-12-03T04:29:29.579Z,94806.91
2018-12-03T04:30:33.063Z,94811.02
2018-12-03T04:31:36.567Z,94805.33
2018-12-03T04:32:40.531Z,94802.91
2018-12-03T04:33:50.489Z,94807.55
2018-12-03T04:34:54.021Z,94816.35
2018-12-03T04:35:57.571Z,94807.24
2018-12-03T04:37:01.074Z,94813.98
2018-12-03T04:38:04.848Z,94819.97
2018-12-03T04:39:08.841Z,94812.26
2018-12-03T04:40:13.755Z,94809.46
2018-12-03T04:41:17.316Z,94808.67
2018-12-03T04:42:20.974Z,94809.42
2018-12-03T04:43:24.452Z,94806.30
2018-12-03T04:44:28.068Z,94811.23
2018-12-03T04:45:31.638Z,94812.36
2018-12-03T04:46:35.223Z,94816.95
2018-12-03T04:47:38.731Z,94810.52
2018-12-03T04:48:42.246Z,94806.56
2018-12-03T04:49:45.791Z,94811.41
2018-12-03T04:50:49.389Z,94810.26
2018-12-03T04:51:52.981Z,94811.94
2018-12-03T04:52:56.592Z,94810.53
2018-12-03T04:54:00.313Z,94803.77
2018-12-03T04:55:03.848Z,94807.00
2018-12-03T04:56:07.476Z,94807.20
2018-12-03T04:57:11.073Z,94798.34
2018-12-03T04:58:14.793Z,94794.09
2018-12-03T04:59:18.316Z,94801.23
2018-12-03T05:00:22.444Z,94796.42
2018-12-03T05:01:26.004Z,94798.28
2018-12-03T05:02:29.590Z,94791.59
2018-12-03T05:03:33.160Z,94798.72
2018-12-03T05:04:36.780Z,94807.95
2018-12-03T05:05:40.367Z,94794.43
2018-12-03T05:06:43.952Z,94806.06
2018-12-03T05:07:47.656Z,94799.97
2018-12-03T05:08:51.165Z,94804.55
2018-12-03T05:09:54.730Z,94792.05
2018-12-03T05:10:58.200Z,94792.05
2018-12-03T05:12:01.830Z,94794.38
2018-12-03T05:13:05.859Z,94794.80
2018-12-03T05:14:09.420Z,94795.64
2018-12-03T05:15:13.856Z,94792.08
2018-12-03T05:16:17.315Z,94800.04
2018-12-03T05:17:20.909Z,94795.11
2018-12-03T05:18:24.961Z,94792.98
2018-12-03T05:19:28.549Z,94803.87
2018-12-03T05:20:32.067Z,94800.34
2018-12-03T05:21:35.604Z,94805.85
2018-12-03T05:22:39.683Z,94803.56
2018-12-03T05:23:43.256Z,94802.03
2018-12-03T05:24:46.835Z,94799.98
2018-12-03T05:25:50.335Z,94801.08
2018-12-03T05:26:53.816Z,94798.16
2018-12-03T05:27:57.287Z,94801.23
2018-12-03T05:29:00.779Z,94801.67
2018-12-03T05:30:06.252Z,94802.16
2018-12-03T05:31:10.032Z,94799.91
2018-12-03T05:32:13.576Z,94796.05
2018-12-03T05:33:17.212Z,94805.20
2018-12-03T05:34:21.332Z,94801.92
2018-12-03T05:35:26.677Z,94799.50
2018-12-03T05:36:30.226Z,94805.31
2018-12-03T05:37:33.783Z,94813.58
2018-12-03T05:38:37.301Z,94806.95
2018-12-03T05:39:40.811Z,94804.15
2018-12-03T05:40:44.508Z,94809.30
2018-12-03T05:41:48.084Z,94807.27
2018-12-03T05:42:51.677Z,94809.48
2018-12-03T05:43:55.328Z,94808.09
2018-12-03T05:44:59.047Z,94806.74
2018-12-03T05:46:02.651Z,94820.16
2018-12-03T05:47:06.243Z,94819.84
2018-12-03T05:48:09.812Z,94816.13
2018-12-03T05:49:13.440Z,94814.44
2018-12-03T05:50:17.340Z,94812.05
2018-12-03T05:51:20.850Z,94807.41
2018-12-03T05:52:24.420Z,94803.68
2018-12-03T05:53:28.153Z,94809.38
2018-12-03T05:54:31.748Z,94807.77
2018-12-03T05:55:35.216Z,94810.28
2018-12-03T05:56:38.859Z,94802.94
2018-12-03T05:57:43.051Z,94802.81
2018-12-03T05:58:46.679Z,94796.19
2018-12-03T05:59:50.185Z,94802.58
2018-12-03T06:00:53.739Z,94805.34
2018-12-03T06:01:57.312Z,94815.09
2018-12-03T06:03:00.815Z,94802.99
2018-12-03T06:04:04.393Z,94808.89
2018-12-03T06:05:09.244Z,94800.30
2018-12-03T06:06:12.797Z,94809.22
2018-12-03T06:07:16.290Z,94810.52
2018-12-03T06:08:19.891Z,94804.70
2018-12-03T06:09:23.537Z,94812.81
2018-12-03T06:10:26.999Z,94807.98
2018-12-03T06:11:30.507Z,94807.28
2018-12-03T06:12:34.076Z,94806.41
2018-12-03T06:13:37.728Z,94811.52
2018-12-03T06:14:41.228Z,94800.72
2018-12-03T06:15:44.724Z,94812.61
2018-12-03T06:16:48.307Z,94807.56
2018-12-03T06:17:53.191Z,94823.39
2018-12-03T06:18:56.715Z,94819.05
2018-12-03T06:20:01.346Z,94811.29
2018-12-03T06:21:05.117Z,94802.58
2018-12-03T06:22:08.571Z,94816.25
2018-12-03T06:23:12.107Z,94811.33
2018-12-03T06:24:15.659Z,94816.36
2018-12-03T06:25:21.516Z,94820.70
2018-12-03T06:26:25.092Z,94817.94
2018-12-03T06:27:28.606Z,94818.50
2018-12-03T06:28:32.211Z,94811.83
2018-12-03T06:29:35.699Z,94812.35
2018-12-03T06:30:39.214Z,94820.42
2018-12-03T06:31:42.759Z,94821.50
2018-12-03T06:32:46.236Z,94826.20
2018-12-03T06:33:49.780Z,94817.30
2018-12-03T06:34:53.332Z,94829.80
2018-12-03T06:35:56.988Z,94823.94
2018-12-03T06:37:00.598Z,94828.85
2018-12-03T06:38:04.125Z,94826.00
2018-12-03T06:39:09.743Z,94831.48
2018-12-03T06:40:15.601Z,94829.52
2018-12-03T06:41:19.142Z,94828.95
2018-12-03T06:42:22.632Z,94830.59
2018-12-03T06:43:26.132Z,94837.05
2018-12-03T06:44:29.780Z,94834.82
2018-12-03T06:45:33.293Z,94832.16
2018-12-03T06:46:37.202Z,94845.09
2018-12-03T06:47:43.078Z,94846.67
2018-12-03T06:48:46.551Z,94842.94
2018-12-03T06:49:50.086Z,94837.52
2018-12-03T06:50:53.724Z,94835.47
2018-12-03T06:51:57.194Z,94838.94
2018-12-03T06:53:00.696Z,94839.17
2018-12-03T06:54:04.379Z,94842.84
2018-12-03T06:55:09.730Z,94838.30
2018-12-03T06:56:13.331Z,94838.95
2018-12-03T06:57:16.837Z,94835.14
2018-12-03T06:58:20.409Z,94847.38
2018-12-03T06:59:23.968Z,94834.19
2018-12-03T07:00:27.712Z,94838.88
2018-12-03T07:01:31.282Z,94831.56
2018-12-03T07:02:34.755Z,94837.72
2018-12-03T07:03:38.511Z,94848.73
2018-12-03T07:04:42.159Z,94842.93
2018-12-03T07:05:47.414Z,94844.77
2018-12-03T07:06:50.964Z,94846.30
2018-12-03T07:07:56.004Z,94847.98
2018-12-03T07:09:00.208Z,94852.95
2018-12-03T07:10:03.827Z,94857.33
2018-12-03T07:11:07.408Z,94850.98
2018-12-03T07:12:11.008Z,94857.59
2018-12-03T07:13:18.957Z,94846.64
2018-12-03T07:14:22.448Z,94851.25
2018-12-03T07:15:25.995Z,94861.05
2018-12-03T07:16:29.535Z,94849.28
2018-12-03T07:17:33.112Z,94857.73
2018-12-03T07:18:37.119Z,94849.77
2018-12-03T07:19:40.701Z,94862.60
2018-12-03T07:20:45.041Z,94862.30
2018-12-03T07:21:49.413Z,94865.16
2018-12-03T07:22:53.070Z,94868.61
2018-12-03T07:23:56.583Z,94855.16
2018-12-03T07:25:00.173Z,94859.09
2018-12-03T07:26:03.711Z,94871.08
2018-12-03T07:27:07.283Z,94866.51
2018-12-03T07:28:10.845Z,94867.41
2018-12-03T07:29:15.170Z,94864.53
2018-12-03T07:30:20.836Z,94857.20
2018-12-03T07:31:24.459Z,94865.03
2018-12-03T07:32:27.979Z,94856.89
2018-12-03T07:33:32.089Z,94860.81
2018-12-03T07:34:35.904Z,94867.08
2018-12-03T07:35:39.908Z,94863.81
2018-12-03T07:36:43.510Z,94859.97
2018-12-03T07:37:47.308Z,94863.58
2018-12-03T07:38:50.860Z,94868.61
2018-12-03T07:39:54.472Z,94862.19
2018-12-03T07:40:57.969Z,94864.17
2018-12-03T07:42:01.560Z,94860.38
2018-12-03T07:43:05.424Z,94858.44
2018-12-03T07:44:08.871Z,94867.08
2018-12-03T07:45:14.863Z,94858.66
2018-12-03T07:46:18.445Z,94861.41
2018-12-03T07:47:22.150Z,94856.19
2018-12-03T07:48:25.821Z,94865.86
2018-12-03T07:49:29.425Z,94864.02
2018-12-03T07:50:33.018Z,94866.95
2018-12-03T07:51:36.499Z,94874.33
2018-12-03T07:52:40.121Z,94868.63
2018-12-03T07:53:43.693Z,94870.52
2018-12-03T07:54:47.271Z,94866.48
2018-12-03T07:55:50.867Z,94864.59
2018-12-03T07:56:54.503Z,94873.72
2018-12-03T07:58:01.803Z,94879.52
2018-12-03T07:59:05.846Z,94875.88
2018-12-03T08:00:15.210Z,94874.70
2018-12-03T08:01:18.906Z,94869.20
2018-12-03T08:02:22.453Z,94879.00
2018-12-03T08:03:26.110Z,94875.66
2018-12-03T08:04:29.736Z,94866.02
2018-12-03T08:05:33.236Z,94870.61
2018-12-03T08:06:36.842Z,94867.91
2018-12-03T08:07:40.412Z,94871.94
2018-12-03T08:08:43.995Z,94862.03
2018-12-03T08:09:47.967Z,94876.98
2018-12-03T08:10:53.385Z,94867.98
2018-12-03T08:11:56.844Z,94878.03
2018-12-03T08:13:00.398Z,94868.33
2018-12-03T08:14:04.162Z,94873.94
2018-12-03T08:15:17.212Z,94879.23
2018-12-03T08:16:20.773Z,94885.16
2018-12-03T08:17:24.264Z,94876.88
2018-12-03T08:18:27.727Z,94877.48
2018-12-03T08:19:31.247Z,94877.92
2018-12-03T08:20:41.849Z,94875.14
2018-12-03T08:21:45.456Z,94870.45
2018-12-03T08:22:51.172Z,94872.20
2018-12-03T08:24:01.635Z,94872.83
2018-12-03T08:25:05.737Z,94890.18
2018-12-03T08:26:10.506Z,94870.41
2018-12-03T08:27:14.207Z,94880.52
2018-12-03T08:28:17.715Z,94884.64
2018-12-03T08:29:21.966Z,94880.05
2018-12-03T08:30:25.503Z,94878.98
2018-12-03T08:31:29.094Z,94888.14
2018-12-03T08:32:32.572Z,94882.48
2018-12-03T08:33:36.150Z,94884.32
2018-12-03T08:34:39.739Z,94883.84
2018-12-03T08:35:43.518Z,94886.20
2018-12-03T08:36:47.032Z,94875.11
2018-12-03T08:37:51.209Z,94885.69
2018-12-03T08:38:54.668Z,94880.48
2018-12-03T08:39:58.182Z,94873.25
2018-12-03T08:41:05.803Z,94880.19
2018-12-03T08:42:09.392Z,94882.80
2018-12-03T08:43:13.020Z,94895.91
2018-12-03T08:44:16.500Z,94878.37
2018-12-03T08:45:20.743Z,94872.09
2018-12-03T08:46:24.224Z,94879.53
2018-12-03T08:47:28.067Z,94878.33
2018-12-03T08:48:35.030Z,94897.42
2018-12-03T08:49:38.788Z,94886.55
2018-12-03T08:50:44.975Z,94888.33
2018-12-03T08:51:48.544Z,94878.62
2018-12-03T08:52:52.120Z,94885.23
2018-12-03T08:53:55.576Z,94891.64
2018-12-03T08:54:59.116Z,94887.68
2018-12-03T08:56:02.600Z,94874.73
2018-12-03T08:57:06.566Z,94883.95
2018-12-03T08:58:12.880Z,94890.63
2018-12-03T08:59:16.337Z,94891.31
2018-12-03T09:00:26.383Z,94894.23
2018-12-03T09:01:29.870Z,94897.91
2018-12-03T09:02:33.355Z,94895.08
2018-12-03T09:03:36.968Z,94894.69
2018-12-03T09:04:40.549Z,94889.45
2018-12-03T09:05:43.996Z,94889.56
2018-12-03T09:06:48.124Z,94892.16
2018-12-03T09:07:52.560Z,94900.42
2018-12-03T09:08:56.136Z,94902.58
2018-12-03T09:09:59.619Z,94894.14
2018-12-03T09:11:03.092Z,94894.16
2018-12-03T09:12:06.780Z,94890.52
2018-12-03T09:13:13.399Z,94894.16
2018-12-03T09:14:17.950Z,94901.39
2018-12-03T09:15:21.417Z,94897.27
2018-12-03T09:16:25.725Z,94893.80
2018-12-03T09:17:29.244Z,94899.41
2018-12-03T09:18:34.101Z,94896.33
2018-12-03T09:19:37.590Z,94901.16
2018-12-03T09:20:41.136Z,94898.76
2018-12-03T09:21:44.727Z,94900.92
2018-12-03T09:22:48.315Z,94915.78
2018-12-03T09:23:53.351Z,94908.86
2018-12-03T09:24:56.879Z,94893.70
2018-12-03T09:26:00.427Z,94893.20
2018-12-03T09:27:04.064Z,94890.66
2018-12-03T09:28:07.592Z,94911.32
2018-12-03T09:29:11.354Z,94902.25
2018-12-03T09:30:14.888Z,94902.25
2018-12-03T09:31:21.119Z,94913.11
2018-12-03T09:32:24.661Z,94899.75
2018-12-03T09:33:28.220Z,94907.83
2018-12-03T09:34:31.703Z,94904.56
2018-12-03T09:35:35.240Z,94908.23
2018-12-03T09:36:39.115Z,94908.72
2018-12-03T09:37:42.693Z,94908.53
2018-12-03T09:38:59.578Z,94896.27
2018-12-03T09:40:03.227Z,94905.23
2018-12-03T09:41:06.803Z,94896.73
2018-12-03T09:42:10.484Z,94890.55
2018-12-03T09:43:14.198Z,94900.41
2018-12-03T09:44:17.703Z,94889.41
2018-12-03T09:45:21.239Z,94894.45
2018-12-03T09:46:24.870Z,94897.34
2018-12-03T09:47:28.317Z,94901.66
2018-12-03T09:48:31.772Z,94890.75
2018-12-03T09:49:35.239Z,94895.86
2018-12-03T09:50:38.732Z,94892.97
2018-12-03T09:51:42.615Z,94885.19
2018-12-03T09:52:46.387Z,94895.53
2018-12-03T09:53:52.021Z,94885.19
2018-12-03T09:54:56.098Z,94885.28
2018-12-03T09:55:59.604Z,94882.31
2018-12-03T09:57:03.402Z,94892.23
2018-12-03T09:58:10.462Z,94892.58
2018-12-03T09:59:16.228Z,94886.89
2018-12-03T10:00:19.795Z,94888.27
2018-12-03T10:01:23.395Z,94884.66
2018-12-03T10:02:28.028Z,94882.81
2018-12-03T10:03:34.610Z,94866.14
2018-12-03T10:04:40.834Z,94868.19
2018-12-03T10:05:47.466Z,94860.98
2018-12-03T10:06:51.025Z,94862.49
2018-12-03T10:07:54.546Z,94874.13
2018-12-03T10:08:58.047Z,94867.12
2018-12-03T10:10:01.602Z,94867.54
2018-12-03T10:11:05.227Z,94867.53
2018-12-03T10:12:09.873Z,94866.29
2018-12-03T10:13:14.006Z,94867.28
2018-12-03T10:14:19.942Z,94872.08
2018-12-03T10:15:28.789Z,94867.12
2018-12-03T10:16:32.828Z,94872.34
2018-12-03T10:17:36.383Z,94865.78
2018-12-03T10:18:40.501Z,94880.85
2018-12-03T10:19:44.592Z,94868.28
2018-12-03T10:20:49.811Z,94867.19
2018-12-03T10:21:53.362Z,94867.86
2018-12-03T10:22:56.872Z,94876.70
2018-12-03T10:24:00.479Z,94870.64
2018-12-03T10:25:09.876Z,94887.30
2018-12-03T10:26:14.535Z,94873.80
2018-12-03T10:27:18.114Z,94879.64
2018-12-03T10:28:21.643Z,94868.03
2018-12-03T10:29:25.144Z,94868.61
2018-12-03T10:30:28.900Z,94863.63
2018-12-03T10:31:32.395Z,94869.50
2018-12-03T10:32:35.976Z,94863.02
2018-12-03T10:33:39.486Z,94865.56
2018-12-03T10:34:42.931Z,94860.88
2018-12-03T10:35:46.475Z,94862.20
2018-12-03T10:36:56.794Z,94868.91
2018-12-03T10:38:05.512Z,94868.53
2018-12-03T10:39:12.012Z,94863.80
2018-12-03T10:40:20.973Z,94864.13
2018-12-03T10:41:30.178Z,94856.02
2018-12-03T10:42:33.695Z,94863.13
2018-12-03T10:43:37.265Z,94861.78
2018-12-03T10:44:40.982Z,94863.52
2018-12-03T10:45:44.477Z,94858.60
2018-12-03T10:46:51.748Z,94857.41
2018-12-03T10:47:56.948Z,94855.67
2018-12-03T10:49:05.082Z,94859.97
2018-12-03T10:50:12.788Z,94847.97
2018-12-03T10:51:18.193Z,94858.28
2018-12-03T10:52:23.340Z,94865.20
2018-12-03T10:53:29.851Z,94851.33
2018-12-03T10:54:37.521Z,94851.84
2018-12-03T10:55:43.003Z,94846.87
2018-12-03T10:56:46.572Z,94850.70
2018-12-03T10:57:50.106Z,94850.82
2018-12-03T10:58:53.645Z,94854.08
2018-12-03T10:59:57.253Z,94841.80
2018-12-03T11:01:10.360Z,94845.48
2018-12-03T11:02:19.328Z,94840.69
2018-12-03T11:03:28.107Z,94848.18
2018-12-03T11:04:40.199Z,94844.83
2018-12-03T11:05:49.360Z,94841.75
2018-12-03T11:06:53.024Z,94835.63
2018-12-03T11:07:56.576Z,94839.85
2018-12-03T11:09:00.127Z,94842.61
2018-12-03T11:10:03.683Z,94839.66
2018-12-03T11:11:07.444Z,94844.70
2018-12-03T11:12:10.997Z,94830.46
2018-12-03T11:13:14.663Z,94841.13
2018-12-03T11:14:18.183Z,94829.05
2018-12-03T11:15:22.664Z,94826.12
2018-12-03T11:16:28.858Z,94830.84
2018-12-03T11:17:33.495Z,94834.88
2018-12-03T11:18:47.158Z,94830.16
2018-12-03T11:19:50.801Z,94837.88
2018-12-03T11:20:54.414Z,94833.77
2018-12-03T11:21:58.035Z,94821.67
2018-12-03T11:23:01.629Z,94813.23
2018-12-03T11:24:05.984Z,94816.76
2018-12-03T11:25:12.231Z,94819.10
2018-12-03T11:26:15.747Z,94813.18
2018-12-03T11:27:20.695Z,94820.12
2018-12-03T11:28:24.393Z,94808.08
2018-12-03T11:29:28.089Z,94814.55
2018-12-03T11:30:32.192Z,94817.70
2018-12-03T11:31:35.934Z,94814.19
2018-12-03T11:32:39.463Z,94819.98
2018-12-03T11:33:43.037Z,94799.27
2018-12-03T11:34:46.604Z,94805.17
2018-12-03T11:35:50.606Z,94809.91
2018-12-03T11:36:58.586Z,94807.62
2018-12-03T11:38:07.291Z,94798.62
2018-12-03T11:39:14.478Z,94795.78
2018-12-03T11:40:27.762Z,94788.53
2018-12-03T11:41:31.295Z,94792.77
2018-12-03T11:42:37.482Z,94791.73
2018-12-03T11:43:41.015Z,94795.70
2018-12-03T11:44:44.616Z,94781.34
2018-12-03T11:45:48.199Z,94778.78
2018-12-03T11:46:51.694Z,94790.84
2018-12-03T11:47:55.187Z,94780.59
2018-12-03T11:48:58.779Z,94777.86
2018-12-03T11:50:02.285Z,94769.55
2018-12-03T11:51:06.073Z,94770.61
2018-12-03T11:52:09.775Z,94745.91
2018-12-03T11:53:13.311Z,94773.98
2018-12-03T11:54:16.825Z,94781.16
2018-12-03T11:55:20.279Z,94775.14
2018-12-03T11:56:23.791Z,94778.69
2018-12-03T11:57:27.259Z,94758.48
2018-12-03T11:58:30.862Z,94761.62
2018-12-03T11:59:34.394Z,94762.06
2018-12-03T12:00:38.008Z,94761.84
2018-12-03T12:01:41.552Z,94761.30
2018-12-03T12:02:45.008Z,94768.17
2018-12-03T12:03:48.559Z,94754.47
2018-12-03T12:04:52.057Z,94760.05
2018-12-03T12:05:55.603Z,94752.84
2018-12-03T12:06:59.159Z,94754.39
2018-12-03T12:08:02.730Z,94755.45
2018-12-03T12:09:09.807Z,94753.63
2018-12-03T12:10:13.435Z,94761.43
2018-12-03T12:11:16.965Z,94750.88
2018-12-03T12:12:20.447Z,94750.05
2018-12-03T12:13:24.037Z,94739.06
2018-12-03T12:14:28.812Z,94746.31
2018-12-03T12:15:32.456Z,94746.13
2018-12-03T12:16:36.040Z,94737.25
2018-12-03T12:17:39.627Z,94734.69
2018-12-03T12:18:43.195Z,94728.91
2018-12-03T12:19:46.635Z,94724.20
2018-12-03T12:20:50.221Z,94727.16
2018-12-03T12:21:53.752Z,94731.45
2018-12-03T12:22:57.248Z,94725.16
2018-12-03T12:24:00.731Z,94717.27
2018-12-03T12:25:04.444Z,94719.11
2018-12-03T12:26:07.979Z,94712.84
2018-12-03T12:27:11.463Z,94713.05
2018-12-03T12:28:15.026Z,94713.13
2018-12-03T12:29:18.484Z,94703.80
2018-12-03T12:30:21.959Z,94710.98
2018-12-03T12:31:28.451Z,94713.74
2018-12-03T12:32:32.019Z,94710.73
2018-12-03T12:33:35.467Z,94709.42